sensor_id;sensor_type;location;lat;lon;timestamp;P1;durP1;ratioP1;P2;durP2;ratioP2
45764;SDS011;31474;45.332;10.230;2022-12-11T00:02:12;32.88;;;15.80;;
45764;SDS011;31474;45.332;10.230;2022-12-11T00:04:37;27.80;;;15.25;;
45764;SDS011;31474;45.332;10.230;2022-12-11T00:07:03;38.88;;;16.27;;
45764;SDS011;31474;45.332;10.230;2022-12-11T00:09:28;38.63;;;15.98;;
45764;SDS011;31474;45.332;10.230;2022-12-11T00:11:55;40.50;;;17.00;;
45764;SDS011;31474;45.332;10.230;2022-12-11T00:14:20;27.10;;;13.98;;
45764;SDS011;31474;45.332;10.230;2022-12-11T00:16:46;32.05;;;13.60;;
45764;SDS011;31474;45.332;10.230;2022-12-11T00:19:13;28.25;;;13.68;;
45764;SDS011;31474;45.332;10.230;2022-12-11T00:21:39;31.67;;;15.38;;
45764;SDS011;31474;45.332;10.230;2022-12-11T00:24:05;25.52;;;13.15;;
45764;SDS011;31474;45.332;10.230;2022-12-11T00:26:31;34.83;;;15.85;;
45764;SDS011;31474;45.332;10.230;2022-12-11T00:28:57;28.83;;;12.93;;
45764;SDS011;31474;45.332;10.230;2022-12-11T00:31:23;36.75;;;14.05;;
45764;SDS011;31474;45.332;10.230;2022-12-11T00:33:49;37.92;;;15.10;;
45764;SDS011;31474;45.332;10.230;2022-12-11T00:36:17;31.35;;;14.10;;
45764;SDS011;31474;45.332;10.230;2022-12-11T00:38:44;42.50;;;15.15;;
45764;SDS011;31474;45.332;10.230;2022-12-11T00:41:10;38.55;;;14.88;;
45764;SDS011;31474;45.332;10.230;2022-12-11T00:43:36;37.80;;;16.05;;
45764;SDS011;31474;45.332;10.230;2022-12-11T00:46:02;39.10;;;17.05;;
45764;SDS011;31474;45.332;10.230;2022-12-11T00:48:29;35.65;;;14.80;;
45764;SDS011;31474;45.332;10.230;2022-12-11T00:50:55;47.75;;;17.48;;
45764;SDS011;31474;45.332;10.230;2022-12-11T00:53:20;42.28;;;17.08;;
45764;SDS011;31474;45.332;10.230;2022-12-11T00:55:46;37.20;;;15.23;;
45764;SDS011;31474;45.332;10.230;2022-12-11T00:58:11;47.83;;;17.67;;
45764;SDS011;31474;45.332;10.230;2022-12-11T01:00:37;44.72;;;18.08;;
45764;SDS011;31474;45.332;10.230;2022-12-11T01:03:04;34.53;;;15.45;;
45764;SDS011;31474;45.332;10.230;2022-12-11T01:05:30;46.33;;;18.13;;
45764;SDS011;31474;45.332;10.230;2022-12-11T01:07:56;38.60;;;16.25;;
45764;SDS011;31474;45.332;10.230;2022-12-11T01:10:21;39.45;;;15.90;;
45764;SDS011;31474;45.332;10.230;2022-12-11T01:12:54;34.78;;;16.38;;
45764;SDS011;31474;45.332;10.230;2022-12-11T01:15:22;40.28;;;16.10;;
45764;SDS011;31474;45.332;10.230;2022-12-11T01:17:50;35.85;;;14.93;;
45764;SDS011;31474;45.332;10.230;2022-12-11T01:20:16;39.97;;;16.13;;
45764;SDS011;31474;45.332;10.230;2022-12-11T01:22:43;39.42;;;14.82;;
45764;SDS011;31474;45.332;10.230;2022-12-11T01:25:09;30.95;;;14.48;;
45764;SDS011;31474;45.332;10.230;2022-12-11T01:27:36;45.97;;;16.63;;
45764;SDS011;31474;45.332;10.230;2022-12-11T01:30:03;37.15;;;15.70;;
45764;SDS011;31474;45.332;10.230;2022-12-11T01:32:32;38.92;;;17.70;;
45764;SDS011;31474;45.332;10.230;2022-12-11T01:34:59;34.97;;;15.63;;
45764;SDS011;31474;45.332;10.230;2022-12-11T01:37:26;37.17;;;16.52;;
45764;SDS011;31474;45.332;10.230;2022-12-11T01:39:52;44.65;;;16.05;;
45764;SDS011;31474;45.332;10.230;2022-12-11T01:42:19;30.02;;;13.25;;
45764;SDS011;31474;45.332;10.230;2022-12-11T01:47:11;30.60;;;13.32;;
45764;SDS011;31474;45.332;10.230;2022-12-11T01:49:37;32.72;;;14.73;;
45764;SDS011;31474;45.332;10.230;2022-12-11T01:52:08;30.02;;;12.57;;
45764;SDS011;31474;45.332;10.230;2022-12-11T01:54:40;26.85;;;13.32;;
45764;SDS011;31474;45.332;10.230;2022-12-11T01:57:07;24.80;;;11.48;;
45764;SDS011;31474;45.332;10.230;2022-12-11T01:59:35;31.00;;;12.10;;
45764;SDS011;31474;45.332;10.230;2022-12-11T02:04:36;33.03;;;13.48;;
45764;SDS011;31474;45.332;10.230;2022-12-11T02:07:04;39.78;;;15.13;;
45764;SDS011;31474;45.332;10.230;2022-12-11T02:09:31;30.17;;;13.40;;
45764;SDS011;31474;45.332;10.230;2022-12-11T02:14:59;26.25;;;12.60;;
45764;SDS011;31474;45.332;10.230;2022-12-11T02:17:40;34.55;;;13.90;;
45764;SDS011;31474;45.332;10.230;2022-12-11T02:28:18;37.38;;;14.48;;
45764;SDS011;31474;45.332;10.230;2022-12-11T02:31:04;32.08;;;13.25;;
45764;SDS011;31474;45.332;10.230;2022-12-11T02:33:51;41.95;;;14.95;;
45764;SDS011;31474;45.332;10.230;2022-12-11T02:36:40;33.15;;;14.85;;
45764;SDS011;31474;45.332;10.230;2022-12-11T02:39:11;30.42;;;13.13;;
45764;SDS011;31474;45.332;10.230;2022-12-11T02:41:39;25.63;;;12.63;;
45764;SDS011;31474;45.332;10.230;2022-12-11T02:44:12;26.70;;;12.88;;
45764;SDS011;31474;45.332;10.230;2022-12-11T02:46:40;31.38;;;13.52;;
45764;SDS011;31474;45.332;10.230;2022-12-11T02:49:08;24.13;;;12.18;;
45764;SDS011;31474;45.332;10.230;2022-12-11T02:51:37;25.40;;;13.05;;
45764;SDS011;31474;45.332;10.230;2022-12-11T02:54:05;30.90;;;14.55;;
45764;SDS011;31474;45.332;10.230;2022-12-11T02:56:41;35.42;;;16.80;;
45764;SDS011;31474;45.332;10.230;2022-12-11T02:59:18;29.48;;;13.85;;
45764;SDS011;31474;45.332;10.230;2022-12-11T03:01:48;40.58;;;17.10;;
45764;SDS011;31474;45.332;10.230;2022-12-11T03:04:14;28.42;;;12.65;;
45764;SDS011;31474;45.332;10.230;2022-12-11T03:06:41;35.78;;;14.63;;
45764;SDS011;31474;45.332;10.230;2022-12-11T03:09:13;31.60;;;13.18;;
45764;SDS011;31474;45.332;10.230;2022-12-11T03:11:39;41.22;;;16.52;;
45764;SDS011;31474;45.332;10.230;2022-12-11T03:14:04;32.88;;;14.63;;
45764;SDS011;31474;45.332;10.230;2022-12-11T03:16:38;41.67;;;15.13;;
45764;SDS011;31474;45.332;10.230;2022-12-11T03:21:52;40.22;;;16.33;;
45764;SDS011;31474;45.332;10.230;2022-12-11T03:24:29;29.52;;;13.18;;
45764;SDS011;31474;45.332;10.230;2022-12-11T03:27:26;42.22;;;15.77;;
45764;SDS011;31474;45.332;10.230;2022-12-11T03:30:18;30.73;;;15.40;;
45764;SDS011;31474;45.332;10.230;2022-12-11T03:32:47;31.70;;;13.18;;
45764;SDS011;31474;45.332;10.230;2022-12-11T03:35:18;38.20;;;15.40;;
45764;SDS011;31474;45.332;10.230;2022-12-11T03:37:58;27.25;;;14.05;;
45764;SDS011;31474;45.332;10.230;2022-12-11T03:40:28;36.55;;;14.48;;
45764;SDS011;31474;45.332;10.230;2022-12-11T03:42:57;29.92;;;14.20;;
45764;SDS011;31474;45.332;10.230;2022-12-11T03:45:24;28.02;;;12.82;;
45764;SDS011;31474;45.332;10.230;2022-12-11T03:47:53;39.58;;;15.95;;
45764;SDS011;31474;45.332;10.230;2022-12-11T03:50:22;29.20;;;14.02;;
45764;SDS011;31474;45.332;10.230;2022-12-11T03:52:52;43.35;;;16.95;;
45764;SDS011;31474;45.332;10.230;2022-12-11T03:55:18;33.97;;;14.45;;
45764;SDS011;31474;45.332;10.230;2022-12-11T03:57:46;30.90;;;13.05;;
45764;SDS011;31474;45.332;10.230;2022-12-11T04:00:13;38.30;;;16.10;;
45764;SDS011;31474;45.332;10.230;2022-12-11T04:02:41;31.08;;;14.88;;
45764;SDS011;31474;45.332;10.230;2022-12-11T04:05:07;40.25;;;15.93;;
45764;SDS011;31474;45.332;10.230;2022-12-11T04:07:35;28.13;;;14.63;;
45764;SDS011;31474;45.332;10.230;2022-12-11T04:10:01;42.00;;;15.48;;
45764;SDS011;31474;45.332;10.230;2022-12-11T04:12:27;35.22;;;14.73;;
45764;SDS011;31474;45.332;10.230;2022-12-11T04:14:53;36.15;;;15.65;;
45764;SDS011;31474;45.332;10.230;2022-12-11T04:17:31;30.63;;;14.45;;
45764;SDS011;31474;45.332;10.230;2022-12-11T04:20:19;40.13;;;16.65;;
45764;SDS011;31474;45.332;10.230;2022-12-11T04:23:10;32.80;;;13.55;;
45764;SDS011;31474;45.332;10.230;2022-12-11T04:26:06;31.33;;;14.35;;
45764;SDS011;31474;45.332;10.230;2022-12-11T04:28:34;42.97;;;15.80;;
45764;SDS011;31474;45.332;10.230;2022-12-11T04:31:00;26.33;;;13.75;;
45764;SDS011;31474;45.332;10.230;2022-12-11T04:33:26;33.33;;;15.00;;
45764;SDS011;31474;45.332;10.230;2022-12-11T04:35:52;26.67;;;13.32;;
45764;SDS011;31474;45.332;10.230;2022-12-11T04:38:18;39.10;;;16.02;;
45764;SDS011;31474;45.332;10.230;2022-12-11T04:40:43;27.98;;;14.57;;
45764;SDS011;31474;45.332;10.230;2022-12-11T04:43:09;40.97;;;15.35;;
45764;SDS011;31474;45.332;10.230;2022-12-11T04:45:34;36.88;;;14.65;;
45764;SDS011;31474;45.332;10.230;2022-12-11T04:48:00;34.95;;;13.80;;
45764;SDS011;31474;45.332;10.230;2022-12-11T04:50:26;29.75;;;15.00;;
45764;SDS011;31474;45.332;10.230;2022-12-11T04:52:54;29.40;;;15.43;;
45764;SDS011;31474;45.332;10.230;2022-12-11T04:55:20;42.67;;;18.15;;
45764;SDS011;31474;45.332;10.230;2022-12-11T04:57:47;32.38;;;14.88;;
45764;SDS011;31474;45.332;10.230;2022-12-11T05:00:13;31.10;;;14.52;;
45764;SDS011;31474;45.332;10.230;2022-12-11T05:02:39;31.23;;;13.55;;
45764;SDS011;31474;45.332;10.230;2022-12-11T05:05:06;40.50;;;15.73;;
45764;SDS011;31474;45.332;10.230;2022-12-11T05:07:36;31.27;;;15.38;;
45764;SDS011;31474;45.332;10.230;2022-12-11T05:10:03;31.33;;;14.20;;
45764;SDS011;31474;45.332;10.230;2022-12-11T05:12:30;34.35;;;16.20;;
45764;SDS011;31474;45.332;10.230;2022-12-11T05:14:56;38.70;;;16.45;;
45764;SDS011;31474;45.332;10.230;2022-12-11T05:17:22;31.23;;;14.88;;
45764;SDS011;31474;45.332;10.230;2022-12-11T05:19:48;38.33;;;15.25;;
45764;SDS011;31474;45.332;10.230;2022-12-11T05:22:14;31.23;;;14.00;;
45764;SDS011;31474;45.332;10.230;2022-12-11T05:24:41;32.55;;;14.63;;
45764;SDS011;31474;45.332;10.230;2022-12-11T05:27:07;33.25;;;14.18;;
45764;SDS011;31474;45.332;10.230;2022-12-11T05:29:32;41.00;;;18.02;;
45764;SDS011;31474;45.332;10.230;2022-12-11T05:31:58;36.65;;;15.85;;
45764;SDS011;31474;45.332;10.230;2022-12-11T05:34:24;42.50;;;14.82;;
45764;SDS011;31474;45.332;10.230;2022-12-11T05:36:49;37.83;;;15.85;;
45764;SDS011;31474;45.332;10.230;2022-12-11T05:39:15;46.75;;;18.25;;
45764;SDS011;31474;45.332;10.230;2022-12-11T05:41:41;36.88;;;15.07;;
45764;SDS011;31474;45.332;10.230;2022-12-11T05:44:08;35.05;;;14.70;;
45764;SDS011;31474;45.332;10.230;2022-12-11T05:46:37;35.47;;;16.17;;
45764;SDS011;31474;45.332;10.230;2022-12-11T05:49:04;43.63;;;16.60;;
45764;SDS011;31474;45.332;10.230;2022-12-11T05:51:30;32.72;;;15.05;;
45764;SDS011;31474;45.332;10.230;2022-12-11T05:54:00;41.38;;;16.50;;
45764;SDS011;31474;45.332;10.230;2022-12-11T05:56:27;37.97;;;14.82;;
45764;SDS011;31474;45.332;10.230;2022-12-11T05:58:55;39.00;;;15.38;;
45764;SDS011;31474;45.332;10.230;2022-12-11T06:01:23;36.05;;;14.48;;
45764;SDS011;31474;45.332;10.230;2022-12-11T06:03:51;35.83;;;13.88;;
45764;SDS011;31474;45.332;10.230;2022-12-11T06:06:18;43.38;;;15.68;;
45764;SDS011;31474;45.332;10.230;2022-12-11T06:08:44;31.95;;;14.70;;
45764;SDS011;31474;45.332;10.230;2022-12-11T06:11:11;37.78;;;17.42;;
45764;SDS011;31474;45.332;10.230;2022-12-11T06:13:38;31.08;;;13.48;;
45764;SDS011;31474;45.332;10.230;2022-12-11T06:16:04;42.78;;;17.20;;
45764;SDS011;31474;45.332;10.230;2022-12-11T06:18:31;30.85;;;11.93;;
45764;SDS011;31474;45.332;10.230;2022-12-11T06:20:59;27.30;;;13.68;;
45764;SDS011;31474;45.332;10.230;2022-12-11T06:23:25;26.05;;;13.18;;
45764;SDS011;31474;45.332;10.230;2022-12-11T06:25:50;10.02;;;5.80;;
45764;SDS011;31474;45.332;10.230;2022-12-11T06:28:16;18.70;;;8.23;;
45764;SDS011;31474;45.332;10.230;2022-12-11T06:30:41;3.80;;;2.53;;
45764;SDS011;31474;45.332;10.230;2022-12-11T06:33:07;4.28;;;2.75;;
45764;SDS011;31474;45.332;10.230;2022-12-11T06:35:33;3.25;;;2.42;;
45764;SDS011;31474;45.332;10.230;2022-12-11T06:37:58;3.13;;;1.50;;
45764;SDS011;31474;45.332;10.230;2022-12-11T06:40:24;4.00;;;2.08;;
45764;SDS011;31474;45.332;10.230;2022-12-11T06:42:50;4.43;;;1.88;;
45764;SDS011;31474;45.332;10.230;2022-12-11T06:45:15;4.05;;;2.03;;
45764;SDS011;31474;45.332;10.230;2022-12-11T06:47:41;1.95;;;1.48;;
45764;SDS011;31474;45.332;10.230;2022-12-11T06:50:07;12.23;;;3.08;;
45764;SDS011;31474;45.332;10.230;2022-12-11T06:52:33;9.57;;;2.25;;
45764;SDS011;31474;45.332;10.230;2022-12-11T06:54:59;6.63;;;1.88;;
45764;SDS011;31474;45.332;10.230;2022-12-11T06:57:24;3.30;;;1.60;;
45764;SDS011;31474;45.332;10.230;2022-12-11T06:59:50;3.47;;;1.33;;
45764;SDS011;31474;45.332;10.230;2022-12-11T07:02:16;2.17;;;1.00;;
45764;SDS011;31474;45.332;10.230;2022-12-11T07:04:43;3.78;;;1.40;;
45764;SDS011;31474;45.332;10.230;2022-12-11T07:07:09;1.35;;;1.00;;
45764;SDS011;31474;45.332;10.230;2022-12-11T07:09:35;2.00;;;1.30;;
45764;SDS011;31474;45.332;10.230;2022-12-11T07:12:03;2.10;;;1.60;;
45764;SDS011;31474;45.332;10.230;2022-12-11T07:14:30;2.35;;;1.02;;
45764;SDS011;31474;45.332;10.230;2022-12-11T07:16:56;5.20;;;0.95;;
45764;SDS011;31474;45.332;10.230;2022-12-11T07:19:22;1.40;;;0.98;;
45764;SDS011;31474;45.332;10.230;2022-12-11T07:21:48;1.15;;;1.00;;
45764;SDS011;31474;45.332;10.230;2022-12-11T07:24:14;2.55;;;1.05;;
45764;SDS011;31474;45.332;10.230;2022-12-11T07:26:40;0.82;;;0.70;;
45764;SDS011;31474;45.332;10.230;2022-12-11T07:29:06;1.30;;;0.90;;
45764;SDS011;31474;45.332;10.230;2022-12-11T07:31:31;1.15;;;0.80;;
45764;SDS011;31474;45.332;10.230;2022-12-11T07:34:00;2.20;;;1.10;;
45764;SDS011;31474;45.332;10.230;2022-12-11T07:36:28;2.10;;;0.80;;
45764;SDS011;31474;45.332;10.230;2022-12-11T07:38:54;1.20;;;0.95;;
45764;SDS011;31474;45.332;10.230;2022-12-11T07:41:20;1.58;;;0.90;;
45764;SDS011;31474;45.332;10.230;2022-12-11T07:43:47;1.10;;;1.00;;
45764;SDS011;31474;45.332;10.230;2022-12-11T07:46:18;1.08;;;0.80;;
45764;SDS011;31474;45.332;10.230;2022-12-11T07:48:46;1.60;;;1.00;;
45764;SDS011;31474;45.332;10.230;2022-12-11T07:51:14;0.90;;;0.68;;
45764;SDS011;31474;45.332;10.230;2022-12-11T07:53:40;0.82;;;0.75;;
45764;SDS011;31474;45.332;10.230;2022-12-11T07:56:07;0.98;;;0.65;;
45764;SDS011;31474;45.332;10.230;2022-12-11T07:58:33;1.33;;;0.77;;
45764;SDS011;31474;45.332;10.230;2022-12-11T08:00:59;1.58;;;1.10;;
45764;SDS011;31474;45.332;10.230;2022-12-11T08:03:24;0.90;;;0.70;;
45764;SDS011;31474;45.332;10.230;2022-12-11T08:05:50;0.80;;;0.60;;
45764;SDS011;31474;45.332;10.230;2022-12-11T08:08:17;1.45;;;0.93;;
45764;SDS011;31474;45.332;10.230;2022-12-11T08:10:43;1.10;;;0.90;;
45764;SDS011;31474;45.332;10.230;2022-12-11T08:13:10;1.48;;;1.00;;
45764;SDS011;31474;45.332;10.230;2022-12-11T08:15:36;2.00;;;1.13;;
45764;SDS011;31474;45.332;10.230;2022-12-11T08:18:02;2.40;;;1.45;;
45764;SDS011;31474;45.332;10.230;2022-12-11T08:20:28;3.15;;;1.70;;
45764;SDS011;31474;45.332;10.230;2022-12-11T08:22:54;2.38;;;1.92;;
45764;SDS011;31474;45.332;10.230;2022-12-11T08:25:20;1.50;;;1.30;;
45764;SDS011;31474;45.332;10.230;2022-12-11T08:27:46;1.83;;;1.20;;
45764;SDS011;31474;45.332;10.230;2022-12-11T08:30:12;2.72;;;1.38;;
45764;SDS011;31474;45.332;10.230;2022-12-11T08:32:38;2.40;;;1.75;;
45764;SDS011;31474;45.332;10.230;2022-12-11T08:35:04;3.20;;;1.23;;
45764;SDS011;31474;45.332;10.230;2022-12-11T08:37:30;1.98;;;1.23;;
45764;SDS011;31474;45.332;10.230;2022-12-11T08:39:55;1.80;;;1.15;;
45764;SDS011;31474;45.332;10.230;2022-12-11T08:42:21;2.55;;;1.45;;
45764;SDS011;31474;45.332;10.230;2022-12-11T08:44:47;2.33;;;1.30;;
45764;SDS011;31474;45.332;10.230;2022-12-11T08:47:13;1.25;;;0.82;;
45764;SDS011;31474;45.332;10.230;2022-12-11T08:49:39;2.58;;;1.38;;
45764;SDS011;31474;45.332;10.230;2022-12-11T08:52:05;1.33;;;1.10;;
45764;SDS011;31474;45.332;10.230;2022-12-11T08:54:31;8.27;;;2.00;;
45764;SDS011;31474;45.332;10.230;2022-12-11T08:56:56;2.83;;;2.05;;
45764;SDS011;31474;45.332;10.230;2022-12-11T08:59:22;5.85;;;3.20;;
45764;SDS011;31474;45.332;10.230;2022-12-11T09:01:49;4.47;;;3.40;;
45764;SDS011;31474;45.332;10.230;2022-12-11T09:04:15;3.33;;;1.88;;
45764;SDS011;31474;45.332;10.230;2022-12-11T09:06:41;6.57;;;3.30;;
45764;SDS011;31474;45.332;10.230;2022-12-11T09:09:06;3.10;;;2.08;;
45764;SDS011;31474;45.332;10.230;2022-12-11T09:11:34;3.30;;;2.80;;
45764;SDS011;31474;45.332;10.230;2022-12-11T09:14:01;3.03;;;2.47;;
45764;SDS011;31474;45.332;10.230;2022-12-11T09:16:27;5.63;;;2.95;;
45764;SDS011;31474;45.332;10.230;2022-12-11T09:18:54;2.50;;;2.10;;
45764;SDS011;31474;45.332;10.230;2022-12-11T09:21:22;3.80;;;2.78;;
45764;SDS011;31474;45.332;10.230;2022-12-11T09:23:53;25.60;;;11.85;;
45764;SDS011;31474;45.332;10.230;2022-12-11T09:26:21;20.20;;;10.98;;
45764;SDS011;31474;45.332;10.230;2022-12-11T09:28:47;2.33;;;1.92;;
45764;SDS011;31474;45.332;10.230;2022-12-11T09:31:18;2.33;;;1.83;;
45764;SDS011;31474;45.332;10.230;2022-12-11T09:33:52;5.50;;;3.22;;
45764;SDS011;31474;45.332;10.230;2022-12-11T09:36:20;3.33;;;2.40;;
45764;SDS011;31474;45.332;10.230;2022-12-11T09:38:46;3.53;;;2.92;;
45764;SDS011;31474;45.332;10.230;2022-12-11T09:43:51;2.03;;;1.83;;
45764;SDS011;31474;45.332;10.230;2022-12-11T09:46:19;2.08;;;1.48;;
45764;SDS011;31474;45.332;10.230;2022-12-11T09:48:45;3.15;;;1.90;;
45764;SDS011;31474;45.332;10.230;2022-12-11T09:51:26;4.55;;;2.20;;
45764;SDS011;31474;45.332;10.230;2022-12-11T09:54:13;4.15;;;2.60;;
45764;SDS011;31474;45.332;10.230;2022-12-11T09:56:48;7.43;;;3.13;;
45764;SDS011;31474;45.332;10.230;2022-12-11T10:07:34;2.30;;;1.70;;
45764;SDS011;31474;45.332;10.230;2022-12-11T10:12:58;1.85;;;1.40;;
45764;SDS011;31474;45.332;10.230;2022-12-11T10:15:51;2.25;;;2.05;;
45764;SDS011;31474;45.332;10.230;2022-12-11T10:18:24;2.70;;;2.10;;
45764;SDS011;31474;45.332;10.230;2022-12-11T10:20:52;3.88;;;1.83;;
45764;SDS011;31474;45.332;10.230;2022-12-11T10:23:20;4.38;;;1.52;;
45764;SDS011;31474;45.332;10.230;2022-12-11T10:25:54;2.63;;;2.22;;
45764;SDS011;31474;45.332;10.230;2022-12-11T10:28:26;3.03;;;1.90;;
45764;SDS011;31474;45.332;10.230;2022-12-11T10:36:38;3.78;;;2.50;;
45764;SDS011;31474;45.332;10.230;2022-12-11T10:39:15;3.08;;;1.65;;
45764;SDS011;31474;45.332;10.230;2022-12-11T10:41:44;2.90;;;2.15;;
45764;SDS011;31474;45.332;10.230;2022-12-11T10:46:47;2.08;;;1.88;;
45764;SDS011;31474;45.332;10.230;2022-12-11T10:49:33;3.20;;;2.15;;
45764;SDS011;31474;45.332;10.230;2022-12-11T10:52:00;4.57;;;2.33;;
45764;SDS011;31474;45.332;10.230;2022-12-11T10:54:37;1.77;;;1.67;;
45764;SDS011;31474;45.332;10.230;2022-12-11T10:57:05;4.97;;;1.98;;
45764;SDS011;31474;45.332;10.230;2022-12-11T11:02:23;3.50;;;2.40;;
45764;SDS011;31474;45.332;10.230;2022-12-11T11:04:51;2.97;;;1.70;;
45764;SDS011;31474;45.332;10.230;2022-12-11T11:09:45;3.65;;;2.45;;
45764;SDS011;31474;45.332;10.230;2022-12-11T11:12:22;2.80;;;1.65;;
45764;SDS011;31474;45.332;10.230;2022-12-11T11:15:06;3.85;;;2.28;;
45764;SDS011;31474;45.332;10.230;2022-12-11T11:17:45;4.30;;;2.55;;
45764;SDS011;31474;45.332;10.230;2022-12-11T11:20:20;3.25;;;2.45;;
45764;SDS011;31474;45.332;10.230;2022-12-11T11:22:56;3.28;;;2.67;;
45764;SDS011;31474;45.332;10.230;2022-12-11T11:25:26;4.07;;;3.08;;
45764;SDS011;31474;45.332;10.230;2022-12-11T11:27:54;2.90;;;1.95;;
45764;SDS011;31474;45.332;10.230;2022-12-11T11:32:55;3.10;;;2.60;;
45764;SDS011;31474;45.332;10.230;2022-12-11T11:35:25;2.22;;;2.03;;
45764;SDS011;31474;45.332;10.230;2022-12-11T11:37:57;4.53;;;2.28;;
45764;SDS011;31474;45.332;10.230;2022-12-11T11:40:26;6.45;;;3.40;;
45764;SDS011;31474;45.332;10.230;2022-12-11T11:45:21;5.85;;;3.35;;
45764;SDS011;31474;45.332;10.230;2022-12-11T11:47:57;4.93;;;3.08;;
45764;SDS011;31474;45.332;10.230;2022-12-11T11:50:25;3.75;;;2.70;;
45764;SDS011;31474;45.332;10.230;2022-12-11T11:52:59;2.65;;;1.90;;
45764;SDS011;31474;45.332;10.230;2022-12-11T11:55:41;3.38;;;2.00;;
45764;SDS011;31474;45.332;10.230;2022-12-11T11:58:17;5.25;;;2.88;;
45764;SDS011;31474;45.332;10.230;2022-12-11T12:00:55;3.13;;;2.17;;
45764;SDS011;31474;45.332;10.230;2022-12-11T12:03:22;2.95;;;2.13;;
45764;SDS011;31474;45.332;10.230;2022-12-11T12:14:31;2.78;;;2.47;;
45764;SDS011;31474;45.332;10.230;2022-12-11T12:25:44;2.80;;;2.05;;
45764;SDS011;31474;45.332;10.230;2022-12-11T12:28:33;4.97;;;2.03;;
45764;SDS011;31474;45.332;10.230;2022-12-11T12:31:18;2.80;;;2.25;;
45764;SDS011;31474;45.332;10.230;2022-12-11T12:34:01;2.33;;;2.00;;
45764;SDS011;31474;45.332;10.230;2022-12-11T12:39:14;2.60;;;1.50;;
45764;SDS011;31474;45.332;10.230;2022-12-11T12:42:02;3.13;;;2.08;;
45764;SDS011;31474;45.332;10.230;2022-12-11T12:44:58;2.55;;;1.55;;
45764;SDS011;31474;45.332;10.230;2022-12-11T12:47:32;3.00;;;1.98;;
45764;SDS011;31474;45.332;10.230;2022-12-11T12:50:00;1.90;;;1.60;;
45764;SDS011;31474;45.332;10.230;2022-12-11T12:52:35;3.08;;;2.30;;
45764;SDS011;31474;45.332;10.230;2022-12-11T12:55:04;2.58;;;1.77;;
45764;SDS011;31474;45.332;10.230;2022-12-11T12:57:38;9.00;;;4.50;;
45764;SDS011;31474;45.332;10.230;2022-12-11T13:03:14;4.22;;;3.38;;
45764;SDS011;31474;45.332;10.230;2022-12-11T13:05:43;5.20;;;3.10;;
45764;SDS011;31474;45.332;10.230;2022-12-11T13:09:08;2.75;;;2.10;;
45764;SDS011;31474;45.332;10.230;2022-12-11T13:11:14;3.20;;;2.28;;
45764;SDS011;31474;45.332;10.230;2022-12-11T13:13:43;3.72;;;2.08;;
45764;SDS011;31474;45.332;10.230;2022-12-11T13:18:42;4.97;;;2.20;;
45764;SDS011;31474;45.332;10.230;2022-12-11T13:26:40;3.88;;;2.75;;
45764;SDS011;31474;45.332;10.230;2022-12-11T13:29:26;3.95;;;2.85;;
45764;SDS011;31474;45.332;10.230;2022-12-11T13:32:11;4.30;;;2.45;;
45764;SDS011;31474;45.332;10.230;2022-12-11T13:34:52;5.25;;;2.92;;
45764;SDS011;31474;45.332;10.230;2022-12-11T13:39:59;4.85;;;3.63;;
45764;SDS011;31474;45.332;10.230;2022-12-11T13:42:32;6.55;;;3.58;;
45764;SDS011;31474;45.332;10.230;2022-12-11T13:47:28;3.67;;;2.58;;
45764;SDS011;31474;45.332;10.230;2022-12-11T13:49:59;4.45;;;3.35;;
45764;SDS011;31474;45.332;10.230;2022-12-11T13:52:51;5.65;;;3.80;;
45764;SDS011;31474;45.332;10.230;2022-12-11T13:55:31;6.07;;;3.85;;
45764;SDS011;31474;45.332;10.230;2022-12-11T13:57:58;3.88;;;2.78;;
45764;SDS011;31474;45.332;10.230;2022-12-11T14:00:28;3.28;;;2.45;;
45764;SDS011;31474;45.332;10.230;2022-12-11T14:02:57;5.97;;;2.83;;
45764;SDS011;31474;45.332;10.230;2022-12-11T14:05:26;5.25;;;2.10;;
45764;SDS011;31474;45.332;10.230;2022-12-11T14:07:56;3.65;;;2.65;;
45764;SDS011;31474;45.332;10.230;2022-12-11T14:10:26;5.15;;;2.33;;
45764;SDS011;31474;45.332;10.230;2022-12-11T14:15:25;2.55;;;2.03;;
45764;SDS011;31474;45.332;10.230;2022-12-11T14:17:52;3.20;;;1.88;;
45764;SDS011;31474;45.332;10.230;2022-12-11T14:20:20;2.92;;;1.90;;
45764;SDS011;31474;45.332;10.230;2022-12-11T14:22:47;3.65;;;2.33;;
45764;SDS011;31474;45.332;10.230;2022-12-11T14:25:18;3.13;;;2.20;;
45764;SDS011;31474;45.332;10.230;2022-12-11T14:27:47;5.20;;;2.65;;
45764;SDS011;31474;45.332;10.230;2022-12-11T14:30:19;4.30;;;2.50;;
45764;SDS011;31474;45.332;10.230;2022-12-11T14:32:49;2.80;;;1.70;;
45764;SDS011;31474;45.332;10.230;2022-12-11T14:35:23;2.63;;;1.77;;
45764;SDS011;31474;45.332;10.230;2022-12-11T14:37:49;2.70;;;1.83;;
45764;SDS011;31474;45.332;10.230;2022-12-11T14:40:17;1.58;;;1.30;;
45764;SDS011;31474;45.332;10.230;2022-12-11T14:42:47;3.17;;;1.77;;
45764;SDS011;31474;45.332;10.230;2022-12-11T14:45:20;2.78;;;1.77;;
45764;SDS011;31474;45.332;10.230;2022-12-11T14:47:51;3.10;;;1.90;;
45764;SDS011;31474;45.332;10.230;2022-12-11T14:52:51;1.52;;;1.33;;
45764;SDS011;31474;45.332;10.230;2022-12-11T14:55:32;2.95;;;2.15;;
45764;SDS011;31474;45.332;10.230;2022-12-11T14:58:00;1.70;;;1.40;;
45764;SDS011;31474;45.332;10.230;2022-12-11T15:00:32;2.58;;;1.70;;
45764;SDS011;31474;45.332;10.230;2022-12-11T15:05:30;4.72;;;2.28;;
45764;SDS011;31474;45.332;10.230;2022-12-11T15:08:01;5.07;;;2.58;;
45764;SDS011;31474;45.332;10.230;2022-12-11T15:10:36;9.73;;;4.40;;
45764;SDS011;31474;45.332;10.230;2022-12-11T15:13:21;6.55;;;3.03;;
45764;SDS011;31474;45.332;10.230;2022-12-11T15:15:48;4.00;;;2.38;;
45764;SDS011;31474;45.332;10.230;2022-12-11T15:18:27;4.72;;;2.15;;
45764;SDS011;31474;45.332;10.230;2022-12-11T15:20:56;2.90;;;2.50;;
45764;SDS011;31474;45.332;10.230;2022-12-11T15:23:25;2.75;;;2.08;;
45764;SDS011;31474;45.332;10.230;2022-12-11T15:25:52;3.15;;;1.80;;
45764;SDS011;31474;45.332;10.230;2022-12-11T15:28:31;3.30;;;2.10;;
45764;SDS011;31474;45.332;10.230;2022-12-11T15:31:00;1.75;;;1.35;;
45764;SDS011;31474;45.332;10.230;2022-12-11T15:33:27;4.38;;;2.80;;
45764;SDS011;31474;45.332;10.230;2022-12-11T15:35:57;5.63;;;3.15;;
45764;SDS011;31474;45.332;10.230;2022-12-11T15:38:31;2.83;;;2.55;;
45764;SDS011;31474;45.332;10.230;2022-12-11T15:41:03;3.92;;;3.08;;
45764;SDS011;31474;45.332;10.230;2022-12-11T15:43:31;8.38;;;4.90;;
45764;SDS011;31474;45.332;10.230;2022-12-11T15:46:01;5.20;;;3.00;;
45764;SDS011;31474;45.332;10.230;2022-12-11T15:48:28;4.70;;;2.55;;
45764;SDS011;31474;45.332;10.230;2022-12-11T15:50:53;3.78;;;2.85;;
45764;SDS011;31474;45.332;10.230;2022-12-11T15:53:19;2.72;;;1.73;;
45764;SDS011;31474;45.332;10.230;2022-12-11T15:55:45;2.55;;;1.80;;
45764;SDS011;31474;45.332;10.230;2022-12-11T15:58:15;1.70;;;1.48;;
45764;SDS011;31474;45.332;10.230;2022-12-11T16:00:43;2.92;;;2.05;;
45764;SDS011;31474;45.332;10.230;2022-12-11T16:03:13;3.13;;;1.80;;
45764;SDS011;31474;45.332;10.230;2022-12-11T16:05:40;5.63;;;3.58;;
45764;SDS011;31474;45.332;10.230;2022-12-11T16:08:06;11.18;;;6.40;;
45764;SDS011;31474;45.332;10.230;2022-12-11T16:10:34;7.20;;;3.80;;
45764;SDS011;31474;45.332;10.230;2022-12-11T16:12:59;4.55;;;3.47;;